Time;durP1;ratioP1;P1;durP2;ratioP2;P2;SDS_P1;SDS_P2;PMS_P1;PMS_P2;Temp;Humidity;BMP_temperature;BMP_pressure;BME280_temperature;BME280_humidity;BME280_pressure;Samples;Min_cycle;Max_cycle;Signal;HPM_P1;HPM_P2
2023/04/26 03:00:46;;;;;;;1.07;0.90;;;20.60;47.90;;;;;;5879184;23;46176;-60
2023/04/26 03:03:12;;;;;;;1.08;0.80;;;20.60;47.90;;;;;;4897445;28;45603;-61
2023/04/26 03:05:38;;;;;;;1.20;1.00;;;20.60;47.90;;;;;;4960965;28;45531;-61
2023/04/26 03:08:04;;;;;;;0.70;0.70;;;20.60;47.90;;;;;;4935384;28;45307;-60
2023/04/26 03:10:30;;;;;;;0.82;0.70;;;20.60;48.60;;;;;;4964028;28;45298;-61
2023/04/26 03:12:56;;;;;;;1.10;0.97;;;20.60;47.90;;;;;;4950400;28;46754;-61
2023/04/26 03:15:21;;;;;;;0.90;0.80;;;20.60;47.90;;;;;;4950630;28;46773;-61
2023/04/26 03:17:47;;;;;;;0.80;0.80;;;20.60;48.00;;;;;;4952808;28;45590;-62
2023/04/26 03:20:13;;;;;;;1.10;0.90;;;20.60;48.00;;;;;;4942155;28;45383;-62
2023/04/26 03:22:38;;;;;;;1.00;0.85;;;20.60;48.00;;;;;;4924811;28;45492;-62
2023/04/26 03:25:05;;;;;;;1.13;0.90;;;20.60;48.00;;;;;;4935691;28;46720;-61
2023/04/26 03:27:31;;;;;;;1.23;1.00;;;20.60;48.00;;;;;;4899093;28;45746;-61
2023/04/26 03:29:57;;;;;;;1.17;0.70;;;20.60;48.10;;;;;;4934866;28;45253;-61
2023/04/26 03:32:22;;;;;;;1.00;0.90;;;20.50;48.00;;;;;;4922064;28;45765;-61
2023/04/26 03:34:48;;;;;;;1.13;1.00;;;20.50;48.00;;;;;;4937880;28;45976;-61
2023/04/26 03:37:14;;;;;;;0.80;0.80;;;20.50;48.00;;;;;;4944855;28;45612;-62
2023/04/26 03:39:40;;;;;;;1.23;0.97;;;20.50;48.70;;;;;;4958871;28;45535;-61
2023/04/26 03:42:05;;;;;;;0.90;0.80;;;20.50;48.00;;;;;;4946556;28;46084;-61
2023/04/26 03:44:31;;;;;;;1.40;0.80;;;20.50;48.00;;;;;;4907613;28;45521;-62
2023/04/26 03:46:56;;;;;;;1.13;0.80;;;20.50;48.00;;;;;;4942493;28;46015;-61
2023/04/26 03:49:22;;;;;;;1.00;0.90;;;20.50;48.10;;;;;;4952429;28;45754;-61
2023/04/26 03:51:48;;;;;;;1.00;0.83;;;20.50;48.00;;;;;;4950036;28;45576;-62
2023/04/26 03:54:14;;;;;;;1.27;0.87;;;20.50;48.10;;;;;;4953322;28;45869;-59
2023/04/26 03:56:40;;;;;;;1.20;0.80;;;20.50;48.10;;;;;;4933585;28;45263;-60
2023/04/26 03:59:05;;;;;;;1.10;0.87;;;20.40;48.00;;;;;;4950020;28;44636;-61
2023/04/26 04:01:31;;;;;;;1.10;1.00;;;20.40;48.00;;;;;;4913844;28;45820;-63
2023/04/26 04:03:57;;;;;;;0.93;0.85;;;20.40;48.00;;;;;;4903106;28;45246;-63
2023/04/26 04:06:23;;;;;;;1.10;0.90;;;20.40;48.00;;;;;;4910984;28;45256;-61
2023/04/26 04:08:48;;;;;;;1.30;1.00;;;20.40;48.00;;;;;;4947736;28;45564;-60
2023/04/26 04:11:14;;;;;;;0.80;0.70;;;20.40;48.10;;;;;;4942283;28;45408;-61
2023/04/26 04:13:40;;;;;;;0.98;0.70;;;20.40;48.10;;;;;;4951626;28;45885;-61
2023/04/26 04:16:05;;;;;;;1.00;0.90;;;20.40;48.10;;;;;;4937510;28;45519;-60
2023/04/26 04:18:31;;;;;;;0.90;0.90;;;20.40;48.10;;;;;;4948596;28;45205;-58
2023/04/26 04:20:57;;;;;;;0.80;0.80;;;20.40;48.10;;;;;;4947761;28;45454;-61
2023/04/26 04:23:22;;;;;;;1.00;0.90;;;20.40;48.10;;;;;;4933627;28;47245;-60
2023/04/26 04:25:49;;;;;;;0.90;0.80;;;20.40;48.10;;;;;;4944995;28;44908;-61
2023/04/26 04:28:15;;;;;;;0.80;0.80;;;20.40;48.10;;;;;;4929795;28;45251;-61
2023/04/26 04:30:42;;;;;;;0.70;0.70;;;20.30;48.10;;;;;;4911642;28;45862;-61
2023/04/26 04:33:08;;;;;;;1.10;0.80;;;20.30;48.10;;;;;;4942293;28;45899;-61
2023/04/26 04:35:34;;;;;;;1.40;1.00;;;20.30;48.10;;;;;;4925840;28;45892;-61
2023/04/26 04:38:00;;;;;;;0.90;0.80;;;20.30;48.10;;;;;;4946771;28;45609;-62
2023/04/26 04:40:26;;;;;;;0.88;0.88;;;20.30;48.10;;;;;;4924479;28;45181;-61
2023/04/26 04:42:52;;;;;;;1.57;1.00;;;20.30;48.10;;;;;;4880550;28;46634;-62
2023/04/26 04:45:21;;;;;;;1.60;0.90;;;20.30;48.10;;;;;;4910529;28;45150;-61
2023/04/26 04:47:47;;;;;;;0.90;0.90;;;20.30;48.10;;;;;;4919238;28;45541;-61
2023/04/26 04:50:13;;;;;;;0.95;0.88;;;20.30;48.10;;;;;;4927649;28;45485;-60
2023/04/26 04:52:39;;;;;;;0.98;0.80;;;20.30;48.10;;;;;;4910629;28;45920;-61
2023/04/26 04:55:05;;;;;;;1.05;0.90;;;20.30;48.10;;;;;;4947071;28;45648;-60
2023/04/26 04:57:31;;;;;;;0.80;0.80;;;20.30;48.10;;;;;;4916232;28;45484;-61
2023/04/26 04:59:57;;;;;;;1.13;0.82;;;20.30;48.20;;;;;;4936648;28;44879;-61
2023/04/26 05:02:22;;;;;;;1.27;0.80;;;20.30;48.20;;;;;;4919266;28;46979;-61
2023/04/26 05:04:48;;;;;;;1.17;1.00;;;20.30;48.20;;;;;;4927258;28;45112;-61
2023/04/26 05:07:14;;;;;;;0.98;0.88;;;20.20;48.10;;;;;;4910725;28;45607;-61
2023/04/26 05:09:41;;;;;;;1.10;1.00;;;20.20;48.10;;;;;;4932714;28;45511;-61
2023/04/26 05:12:06;;;;;;;0.70;0.70;;;20.20;48.10;;;;;;4939859;28;46298;-60
2023/04/26 05:14:32;;;;;;;1.03;0.80;;;20.20;48.10;;;;;;4932390;28;46384;-61
2023/04/26 05:16:58;;;;;;;0.93;0.80;;;20.20;48.10;;;;;;4940904;28;45293;-62
2023/04/26 05:19:24;;;;;;;2.03;0.90;;;20.20;48.10;;;;;;4924823;28;45452;-60
2023/04/26 05:21:51;;;;;;;0.80;0.80;;;20.20;48.00;;;;;;4941025;28;46415;-59
2023/04/26 05:24:17;;;;;;;1.00;0.80;;;20.30;47.80;;;;;;4919934;28;45631;-59
2023/04/26 05:26:42;;;;;;;1.17;1.00;;;20.40;47.60;;;;;;4926635;28;45728;-60
2023/04/26 05:29:08;;;;;;;1.10;1.00;;;20.50;47.20;;;;;;4949920;28;44939;-61
2023/04/26 05:31:33;;;;;;;1.25;1.00;;;20.60;47.00;;;;;;4922859;28;46053;-60
2023/04/26 05:33:59;;;;;;;1.25;1.00;;;20.70;46.70;;;;;;4949986;28;45112;-59
2023/04/26 05:36:25;;;;;;;0.70;0.70;;;20.80;46.50;;;;;;4937893;28;45553;-61
2023/04/26 05:38:50;;;;;;;1.00;0.80;;;20.90;46.30;;;;;;4949439;28;45470;-60
2023/04/26 05:41:16;;;;;;;0.87;0.80;;;21.00;46.20;;;;;;4928717;28;46488;-61
2023/04/26 05:43:41;;;;;;;1.33;0.90;;;21.00;46.20;;;;;;4933843;28;45515;-61
2023/04/26 05:46:07;;;;;;;1.70;0.90;;;20.90;46.30;;;;;;4920237;28;45380;-60
2023/04/26 05:48:32;;;;;;;2.00;1.00;;;20.80;46.60;;;;;;4933525;28;45717;-60
2023/04/26 05:50:58;;;;;;;1.30;0.80;;;20.70;46.70;;;;;;4939714;28;45855;-61
2023/04/26 05:53:23;;;;;;;1.37;0.90;;;20.60;46.90;;;;;;4934329;28;44681;-59
2023/04/26 05:55:49;;;;;;;1.00;0.70;;;20.60;47.00;;;;;;4915391;28;45291;-60
2023/04/26 05:58:15;;;;;;;0.87;0.80;;;20.60;47.10;;;;;;4951270;28;45933;-59
2023/04/26 06:00:41;;;;;;;1.00;0.90;;;20.50;47.10;;;;;;4926556;28;46321;-61
2023/04/26 06:03:06;;;;;;;1.40;0.70;;;20.50;47.10;;;;;;4957823;28;45482;-60
2023/04/26 06:05:32;;;;;;;0.90;0.80;;;20.50;47.10;;;;;;4952744;28;45746;-59
2023/04/26 06:07:58;;;;;;;1.20;1.03;;;20.60;47.20;;;;;;4927851;28;46224;-61
2023/04/26 06:10:23;;;;;;;1.17;0.93;;;20.60;47.10;;;;;;4951155;28;46020;-60
2023/04/26 06:12:49;;;;;;;1.47;1.00;;;20.80;46.70;;;;;;4948867;28;45022;-61
2023/04/26 06:15:15;;;;;;;1.10;1.00;;;21.60;45.10;;;;;;4934644;28;44699;-61
2023/04/26 06:17:40;;;;;;;1.50;1.10;;;22.20;43.90;;;;;;4934285;28;45028;-61
2023/04/26 06:20:09;;;;;;;1.50;1.10;;;22.60;43.10;;;;;;4932355;28;45560;-61
2023/04/26 06:22:35;;;;;;;1.00;0.80;;;22.80;42.50;;;;;;4922092;28;45668;-61
2023/04/26 06:25:01;;;;;;;0.70;0.70;;;22.70;42.70;;;;;;4935650;28;45355;-60
2023/04/26 06:27:26;;;;;;;0.70;0.70;;;22.00;43.90;;;;;;4947736;28;45194;-61
2023/04/26 06:29:52;;;;;;;0.80;0.80;;;21.50;44.80;;;;;;4957386;28;45345;-61
2023/04/26 06:32:17;;;;;;;1.03;0.90;;;21.30;45.30;;;;;;4931505;28;45893;-61
2023/04/26 06:34:44;;;;;;;1.07;0.80;;;21.20;46.20;;;;;;4940340;28;45484;-61
2023/04/26 06:37:10;;;;;;;0.95;0.80;;;21.10;45.80;;;;;;4946352;28;45583;-65
2023/04/26 06:39:37;;;;;;;1.20;0.90;;;21.10;45.90;;;;;;4929017;28;47257;-61
2023/04/26 06:42:03;;;;;;;0.82;0.80;;;21.00;46.00;;;;;;4904001;28;45234;-61
2023/04/26 06:44:29;;;;;;;0.90;0.70;;;21.00;46.10;;;;;;4905873;28;45264;-60
2023/04/26 06:46:55;;;;;;;0.90;0.80;;;20.90;46.20;;;;;;4947637;28;45992;-61
2023/04/26 06:49:21;;;;;;;0.98;0.77;;;20.90;46.20;;;;;;4940307;28;45283;-61
2023/04/26 06:51:47;;;;;;;1.03;0.80;;;20.90;46.30;;;;;;4958356;28;45443;-61
2023/04/26 06:54:12;;;;;;;0.80;0.70;;;20.90;46.40;;;;;;4937859;28;45613;-60
2023/04/26 06:56:38;;;;;;;1.25;0.77;;;20.80;46.40;;;;;;4934050;28;45799;-61
2023/04/26 06:59:04;;;;;;;1.42;0.80;;;20.80;46.50;;;;;;4940885;28;45368;-61
2023/04/26 07:01:32;;;;;;;0.70;0.70;;;20.80;46.50;;;;;;4932870;28;45246;-61
2023/04/26 07:04:02;;;;;;;1.00;0.90;;;20.90;46.60;;;;;;4941959;28;45246;-61
2023/04/26 07:06:28;;;;;;;1.08;0.77;;;20.80;46.60;;;;;;4953109;28;45520;-61
2023/04/26 07:08:53;;;;;;;1.30;0.90;;;20.80;46.60;;;;;;4923669;28;45917;-60
2023/04/26 07:11:19;;;;;;;0.95;0.80;;;20.80;46.60;;;;;;4928782;28;45904;-61
2023/04/26 07:13:45;;;;;;;0.80;0.80;;;20.80;46.70;;;;;;4944359;28;46259;-61
2023/04/26 07:16:10;;;;;;;1.50;0.80;;;20.80;46.70;;;;;;4912144;28;45472;-61
2023/04/26 07:18:36;;;;;;;0.90;0.80;;;20.80;46.70;;;;;;4956624;28;46054;-62
2023/04/26 07:21:01;;;;;;;1.63;0.90;;;20.80;46.80;;;;;;4921140;28;45178;-62
2023/04/26 07:23:28;;;;;;;0.80;0.77;;;20.80;46.80;;;;;;4945174;28;45264;-61
2023/04/26 07:25:54;;;;;;;0.80;0.80;;;20.80;46.80;;;;;;4933725;28;45652;-61
2023/04/26 07:28:20;;;;;;;0.93;0.77;;;20.80;46.80;;;;;;4934415;28;45921;-62
2023/04/26 07:30:45;;;;;;;0.82;0.75;;;20.80;46.80;;;;;;4934895;28;45465;-62
2023/04/26 07:33:11;;;;;;;1.50;0.80;;;20.80;46.80;;;;;;4942136;28;45080;-61
2023/04/26 07:35:36;;;;;;;0.80;0.80;;;20.80;46.80;;;;;;4951400;28;45544;-62
2023/04/26 07:38:02;;;;;;;1.90;0.87;;;20.80;46.80;;;;;;4921652;28;47394;-61
2023/04/26 07:40:28;;;;;;;1.20;0.90;;;20.80;46.80;;;;;;4932520;28;44674;-64
2023/04/26 07:42:54;;;;;;;0.75;0.75;;;20.80;46.80;;;;;;4935437;28;45599;-62
2023/04/26 07:45:20;;;;;;;1.30;0.80;;;20.80;46.80;;;;;;4934406;28;45465;-62
2023/04/26 07:47:45;;;;;;;1.20;0.80;;;20.80;46.80;;;;;;4955630;28;45995;-61
2023/04/26 07:50:11;;;;;;;1.23;0.80;;;20.90;46.80;;;;;;4952612;28;45426;-62
2023/04/26 07:52:36;;;;;;;1.10;0.85;;;20.80;46.80;;;;;;4956801;28;44959;-61
2023/04/26 07:55:03;;;;;;;1.05;0.80;;;20.80;46.80;;;;;;4939016;28;44698;-61
2023/04/26 07:57:28;;;;;;;0.68;0.65;;;20.90;46.80;;;;;;4935222;28;46665;-60
2023/04/26 07:59:54;;;;;;;0.70;0.70;;;20.90;46.80;;;;;;4951656;28;45640;-62
2023/04/26 08:02:19;;;;;;;1.25;0.90;;;20.80;46.80;;;;;;4947329;28;45593;-62
2023/04/26 08:04:49;;;;;;;0.80;0.77;;;20.90;46.80;;;;;;4960112;28;45397;-61
2023/04/26 08:07:15;;;;;;;1.13;0.90;;;20.90;46.80;;;;;;4951386;28;45438;-63
2023/04/26 08:09:40;;;;;;;0.73;0.73;;;20.90;46.80;;;;;;4954474;28;45264;-62
2023/04/26 08:12:06;;;;;;;1.17;1.00;;;20.90;46.80;;;;;;4950593;28;45324;-61
2023/04/26 08:14:33;;;;;;;1.00;0.90;;;20.90;46.70;;;;;;4933186;28;45830;-61
2023/04/26 08:17:00;;;;;;;1.00;0.77;;;20.90;46.70;;;;;;4945458;28;46156;-61
2023/04/26 08:19:46;;;;;;;0.95;0.82;;;20.90;46.70;;;;;;4927579;28;45316;-61
2023/04/26 08:22:11;;;;;;;0.70;0.70;;;20.90;46.70;;;;;;4952236;28;45779;-62
2023/04/26 08:24:37;;;;;;;0.90;0.77;;;21.00;46.80;;;;;;4928834;28;45504;-63
2023/04/26 08:27:02;;;;;;;1.30;0.83;;;20.90;46.70;;;;;;4935621;28;46133;-62
2023/04/26 08:29:28;;;;;;;0.73;0.70;;;20.90;46.70;;;;;;4960613;28;45417;-61
2023/04/26 08:31:54;;;;;;;0.90;0.80;;;20.90;46.70;;;;;;4923191;28;45896;-65
2023/04/26 08:34:19;;;;;;;1.17;0.93;;;20.90;46.70;;;;;;4943070;28;45860;-62
2023/04/26 08:36:45;;;;;;;1.07;0.80;;;20.90;46.70;;;;;;4933400;28;45560;-62
2023/04/26 08:39:11;;;;;;;1.13;0.83;;;20.90;46.70;;;;;;4951390;28;45646;-61
2023/04/26 08:41:44;;;;;;;0.77;0.77;;;21.00;46.80;;;;;;4949862;28;45973;-62
2023/04/26 08:44:10;;;;;;;1.00;0.80;;;21.00;46.70;;;;;;4935498;28;45524;-62
2023/04/26 08:46:40;;;;;;;0.93;0.80;;;21.00;46.70;;;;;;4940299;28;45878;-62
2023/04/26 08:49:30;;;;;;;0.95;0.70;;;21.00;46.70;;;;;;4953251;28;45160;-62
2023/04/26 08:51:56;;;;;;;1.50;0.98;;;21.00;46.70;;;;;;4936252;28;46126;-62
2023/04/26 08:54:22;;;;;;;1.00;0.70;;;21.00;46.80;;;;;;4939751;28;46587;-62
2023/04/26 08:56:47;;;;;;;0.80;0.70;;;21.00;46.80;;;;;;4923286;28;46756;-62
2023/04/26 08:59:13;;;;;;;0.90;0.80;;;21.00;46.80;;;;;;4924942;28;45798;-62
2023/04/26 09:01:39;;;;;;;0.95;0.85;;;21.00;46.80;;;;;;4915993;28;45626;-62
2023/04/26 09:04:05;;;;;;;0.73;0.73;;;21.00;46.80;;;;;;4913720;28;45645;-62
2023/04/26 09:06:31;;;;;;;1.00;0.90;;;21.00;46.80;;;;;;4896381;28;45935;-61
2023/04/26 09:08:57;;;;;;;0.70;0.70;;;21.00;46.80;;;;;;4931070;28;45190;-62
2023/04/26 09:11:23;;;;;;;1.07;0.80;;;21.00;46.80;;;;;;4874054;28;44895;-60
2023/04/26 09:13:48;;;;;;;1.20;0.90;;;21.00;46.80;;;;;;4934196;28;45034;-62
2023/04/26 09:16:14;;;;;;;1.10;0.80;;;21.00;46.70;;;;;;4920271;28;45141;-61
2023/04/26 09:19:00;;;;;;;1.20;0.73;;;21.00;46.80;;;;;;4909938;28;45438;-62
2023/04/26 09:21:26;;;;;;;0.77;0.70;;;21.00;46.80;;;;;;4925011;28;45459;-62
2023/04/26 09:24:00;;;;;;;1.65;1.00;;;21.00;46.80;;;;;;4914346;28;45488;-62
2023/04/26 09:26:26;;;;;;;1.13;0.80;;;21.00;46.80;;;;;;4925319;28;45509;-61
2023/04/26 09:29:13;;;;;;;1.17;0.83;;;21.00;46.80;;;;;;4932480;28;45487;-62
2023/04/26 09:31:41;;;;;;;1.60;0.90;;;21.00;46.80;;;;;;4921552;28;45164;-62
2023/04/26 09:34:07;;;;;;;1.05;0.70;;;21.00;46.80;;;;;;4925778;28;45070;-60
2023/04/26 09:36:46;;;;;;;1.33;1.00;;;21.00;46.80;;;;;;4907223;28;45940;-61
2023/04/26 09:39:12;;;;;;;0.70;0.63;;;21.00;46.80;;;;;;4912532;28;45129;-62
2023/04/26 09:41:43;;;;;;;0.80;0.60;;;21.00;46.80;;;;;;4906742;28;45038;-61
2023/04/26 09:44:22;;;;;;;1.00;0.80;;;21.00;46.80;;;;;;4916080;28;45247;-62
2023/04/26 09:47:01;;;;;;;0.80;0.77;;;21.00;46.80;;;;;;4890671;28;45927;-61
2023/04/26 09:49:55;;;;;;;1.00;0.70;;;21.00;46.80;;;;;;4921151;28;45335;-62
2023/04/26 09:52:20;;;;;;;0.90;0.60;;;21.00;46.80;;;;;;4919735;28;45330;-62
2023/04/26 09:54:50;;;;;;;0.80;0.80;;;21.00;46.80;;;;;;4932827;28;45976;-62
2023/04/26 09:57:17;;;;;;;1.05;0.75;;;21.00;46.80;;;;;;4925847;28;45524;-61
2023/04/26 09:59:50;;;;;;;0.73;0.70;;;21.00;46.80;;;;;;4916249;28;45559;-62
2023/04/26 10:02:23;;;;;;;1.00;0.90;;;21.00;46.80;;;;;;4917920;28;45094;-62
2023/04/26 10:04:50;;;;;;;0.80;0.80;;;21.00;46.80;;;;;;4939412;28;45496;-62
2023/04/26 10:07:17;;;;;;;0.60;0.60;;;21.00;46.70;;;;;;4946975;28;46013;-64
2023/04/26 10:09:43;;;;;;;0.90;0.63;;;21.00;46.70;;;;;;4921854;28;45338;-61
2023/04/26 10:12:13;;;;;;;0.83;0.63;;;21.00;46.70;;;;;;4928945;28;45232;-62
2023/04/26 10:14:38;;;;;;;1.10;0.90;;;21.00;46.70;;;;;;4937082;28;45175;-62
2023/04/26 10:17:04;;;;;;;1.80;0.90;;;21.00;46.60;;;;;;4929348;28;46159;-61
2023/04/26 10:19:31;;;;;;;0.73;0.70;;;21.00;46.70;;;;;;4935196;28;44640;-63
2023/04/26 10:22:01;;;;;;;1.10;0.70;;;21.00;46.70;;;;;;4934403;28;45205;-61
2023/04/26 10:24:26;;;;;;;1.13;0.60;;;21.00;46.60;;;;;;4906259;28;45207;-62
2023/04/26 10:26:56;;;;;;;0.85;0.75;;;21.00;46.60;;;;;;4916182;28;46294;-62
2023/04/26 10:29:22;;;;;;;0.90;0.73;;;21.00;47.20;;;;;;4932120;28;45359;-62
2023/04/26 10:32:08;;;;;;;1.10;0.77;;;21.00;46.60;;;;;;4910559;28;45558;-61
2023/04/26 10:34:33;;;;;;;1.33;0.70;;;21.00;46.60;;;;;;4952578;28;45274;-60
2023/04/26 10:37:26;;;;;;;0.80;0.80;;;21.00;46.60;;;;;;4925618;28;46201;-62
2023/04/26 10:39:52;;;;;;;1.23;0.70;;;21.00;46.60;;;;;;4948924;28;45538;-63
2023/04/26 10:42:27;;;;;;;1.00;0.87;;;21.10;46.60;;;;;;4912139;28;45653;-61
2023/04/26 10:44:54;;;;;;;0.63;0.60;;;21.00;46.60;;;;;;4954627;28;46071;-61
2023/04/26 10:47:21;;;;;;;1.13;0.90;;;21.00;46.60;;;;;;4944995;28;45388;-62
2023/04/26 10:49:47;;;;;;;0.80;0.80;;;21.00;46.60;;;;;;4935360;28;45488;-61
2023/04/26 10:52:18;;;;;;;0.70;0.65;;;21.00;46.60;;;;;;4927132;28;44746;-62
2023/04/26 10:54:52;;;;;;;0.83;0.77;;;21.00;46.60;;;;;;4932935;28;45302;-62
2023/04/26 10:57:17;;;;;;;0.82;0.80;;;21.00;46.60;;;;;;4947160;28;45337;-60
2023/04/26 11:00:11;;;;;;;0.80;0.70;;;21.00;46.60;;;;;;4936688;28;46188;-61
2023/04/26 11:02:52;;;;;;;1.00;0.80;;;21.00;46.60;;;;;;4945853;28;45060;-62
2023/04/26 11:05:49;;;;;;;0.95;0.80;;;21.00;46.60;;;;;;4929429;28;44826;-62
2023/04/26 11:08:18;;;;;;;0.70;0.70;;;21.00;46.60;;;;;;4952697;28;46593;-62
2023/04/26 11:10:48;;;;;;;0.90;0.80;;;21.00;46.60;;;;;;4936558;28;45526;-61
2023/04/26 11:13:14;;;;;;;0.82;0.75;;;21.00;46.60;;;;;;4932974;28;45616;-62
2023/04/26 11:15:40;;;;;;;0.80;0.70;;;21.00;46.60;;;;;;4911743;28;44940;-62
2023/04/26 11:18:05;;;;;;;0.95;0.75;;;21.00;46.60;;;;;;4921021;28;46120;-62
2023/04/26 11:20:31;;;;;;;0.70;0.70;;;21.00;46.50;;;;;;4944333;28;45252;-60
2023/04/26 11:22:57;;;;;;;0.70;0.60;;;21.00;46.60;;;;;;4954167;28;45222;-61
2023/04/26 11:25:27;;;;;;;0.63;0.63;;;21.00;46.50;;;;;;4924105;28;45257;-61
2023/04/26 11:28:02;;;;;;;0.77;0.77;;;21.00;46.50;;;;;;4935145;28;46824;-62
2023/04/26 11:30:29;;;;;;;1.33;0.57;;;21.00;46.60;;;;;;4921001;28;45280;-62
2023/04/26 11:32:55;;;;;;;1.45;0.90;;;21.00;46.60;;;;;;4913382;28;45973;-62
2023/04/26 11:35:22;;;;;;;0.85;0.70;;;21.00;46.60;;;;;;4942724;28;46114;-62
2023/04/26 11:37:50;;;;;;;0.70;0.67;;;21.00;46.50;;;;;;4914205;28;47077;-62
2023/04/26 11:40:16;;;;;;;0.97;0.80;;;21.00;46.50;;;;;;4945881;28;45369;-62
2023/04/26 11:42:45;;;;;;;1.20;0.82;;;21.00;46.60;;;;;;4944511;28;46508;-61
2023/04/26 11:45:11;;;;;;;0.70;0.70;;;21.00;46.60;;;;;;4930337;28;45793;-62
2023/04/26 11:47:36;;;;;;;0.80;0.70;;;21.00;46.50;;;;;;4936348;28;45307;-62
2023/04/26 11:50:03;;;;;;;0.73;0.70;;;21.00;46.60;;;;;;4927831;28;45494;-62
2023/04/26 11:52:29;;;;;;;1.00;0.80;;;21.00;46.60;;;;;;4929965;28;45311;-62
2023/04/26 11:55:05;;;;;;;1.02;0.82;;;21.00;46.50;;;;;;4933993;28;45980;-61
2023/04/26 11:57:31;;;;;;;0.80;0.50;;;21.00;46.50;;;;;;4941606;28;45901;-62
2023/04/26 12:00:13;;;;;;;0.90;0.67;;;21.10;46.60;;;;;;4951337;28;45283;-62
2023/04/26 12:02:46;;;;;;;0.88;0.73;;;21.00;46.50;;;;;;4934920;28;45591;-62
2023/04/26 12:05:24;;;;;;;0.90;0.70;;;21.00;46.50;;;;;;4946054;28;45144;-62
2023/04/26 12:07:55;;;;;;;1.00;0.80;;;21.00;46.50;;;;;;4954500;28;48067;-62
2023/04/26 12:10:34;;;;;;;0.70;0.60;;;21.00;46.50;;;;;;4948654;28;45118;-62
2023/04/26 12:13:00;;;;;;;1.10;0.70;;;21.00;46.50;;;;;;4954409;28;45295;-62
2023/04/26 12:15:30;;;;;;;0.80;0.70;;;21.00;46.50;;;;;;4910855;28;46101;-61
2023/04/26 12:18:00;;;;;;;0.70;0.65;;;21.00;46.50;;;;;;4933087;28;46134;-62
2023/04/26 12:20:30;;;;;;;0.80;0.75;;;21.00;46.50;;;;;;4929130;28;45307;-62
2023/04/26 12:23:06;;;;;;;1.20;0.80;;;21.10;46.60;;;;;;4934329;28;45544;-62
2023/04/26 12:25:36;;;;;;;0.87;0.80;;;21.10;46.50;;;;;;4946396;28;45742;-62
2023/04/26 12:28:11;;;;;;;1.02;0.70;;;21.10;46.50;;;;;;4935725;28;46979;-62
2023/04/26 12:30:37;;;;;;;0.65;0.63;;;21.10;46.50;;;;;;4912432;28;45468;-61
2023/04/26 12:33:02;;;;;;;0.85;0.80;;;21.10;46.60;;;;;;4947559;28;45331;-61
2023/04/26 12:35:28;;;;;;;0.88;0.55;;;21.10;46.60;;;;;;4913876;28;45460;-61
2023/04/26 12:37:55;;;;;;;0.73;0.70;;;21.10;46.60;;;;;;4951467;28;45203;-60
2023/04/26 12:40:22;;;;;;;0.68;0.68;;;21.10;46.50;;;;;;4929490;28;44710;-62
2023/04/26 12:42:48;;;;;;;0.90;0.70;;;21.10;46.50;;;;;;4938517;28;45077;-62
2023/04/26 12:45:13;;;;;;;0.70;0.70;;;21.10;46.50;;;;;;4931057;28;45900;-61
2023/04/26 12:47:39;;;;;;;0.60;0.60;;;21.10;46.50;;;;;;4917827;28;47192;-61
2023/04/26 12:50:05;;;;;;;0.80;0.70;;;21.10;46.50;;;;;;4952664;28;45464;-62
2023/04/26 12:52:31;;;;;;;0.70;0.60;;;21.10;46.60;;;;;;4949439;28;45798;-60
2023/04/26 12:54:57;;;;;;;0.90;0.70;;;21.10;46.50;;;;;;4935301;28;45343;-62
2023/04/26 12:57:23;;;;;;;1.00;0.60;;;21.10;46.50;;;;;;4932241;28;46071;-63
2023/04/26 12:59:48;;;;;;;0.95;0.65;;;21.10;46.50;;;;;;4937398;28;44705;-62
2023/04/26 13:02:14;;;;;;;0.80;0.70;;;21.10;46.50;;;;;;4944153;28;45101;-63
2023/04/26 13:04:40;;;;;;;0.70;0.60;;;21.10;46.50;;;;;;4922273;28;45680;-62
2023/04/26 13:07:05;;;;;;;0.83;0.70;;;21.10;46.50;;;;;;4946770;28;46237;-63
2023/04/26 13:09:31;;;;;;;0.70;0.70;;;21.10;46.50;;;;;;4938416;28;45462;-61
2023/04/26 13:11:57;;;;;;;0.98;0.80;;;21.10;46.50;;;;;;4932884;28;44697;-60
2023/04/26 13:14:23;;;;;;;1.10;0.70;;;21.10;46.50;;;;;;4938867;28;45502;-62
2023/04/26 13:16:49;;;;;;;0.70;0.60;;;21.10;46.50;;;;;;4928908;28;45946;-62
2023/04/26 13:19:15;;;;;;;0.88;0.70;;;21.10;46.50;;;;;;4948872;28;45481;-59
2023/04/26 13:21:41;;;;;;;0.57;0.57;;;21.10;46.50;;;;;;4950088;28;45688;-61
2023/04/26 13:24:07;;;;;;;0.90;0.80;;;21.10;46.50;;;;;;4954943;28;45647;-60
2023/04/26 13:26:32;;;;;;;1.00;0.70;;;21.10;46.50;;;;;;4944134;28;45792;-61
2023/04/26 13:28:58;;;;;;;0.60;0.60;;;21.10;46.50;;;;;;4954525;28;45211;-61
2023/04/26 13:31:23;;;;;;;0.90;0.80;;;21.10;46.50;;;;;;4928724;28;45439;-62
2023/04/26 13:33:49;;;;;;;0.93;0.60;;;21.10;46.50;;;;;;4934483;28;45650;-60
2023/04/26 13:36:15;;;;;;;0.85;0.70;;;21.10;46.50;;;;;;4912848;28;46949;-61
2023/04/26 13:38:41;;;;;;;1.10;0.80;;;21.10;46.40;;;;;;4953255;28;45795;-62
2023/04/26 13:41:07;;;;;;;0.70;0.70;;;21.10;46.40;;;;;;4949900;28;45966;-61
2023/04/26 13:43:33;;;;;;;0.70;0.68;;;21.10;46.50;;;;;;4938343;28;45236;-62
2023/04/26 13:45:58;;;;;;;0.75;0.75;;;21.10;46.50;;;;;;4929534;28;47004;-60
2023/04/26 13:48:24;;;;;;;1.00;0.70;;;21.10;46.50;;;;;;4900640;28;45309;-61
2023/04/26 13:50:50;;;;;;;0.73;0.57;;;21.10;46.40;;;;;;4945104;28;51703;-61
2023/04/26 13:53:15;;;;;;;0.90;0.60;;;21.10;46.40;;;;;;4955521;28;44949;-60
2023/04/26 13:55:41;;;;;;;0.60;0.60;;;21.10;46.40;;;;;;4931942;28;46059;-61
2023/04/26 13:58:06;;;;;;;1.03;0.70;;;21.10;46.40;;;;;;4950996;28;45018;-62
2023/04/26 14:00:32;;;;;;;0.60;0.53;;;21.10;46.40;;;;;;4945041;28;44869;-62
2023/04/26 14:02:57;;;;;;;0.60;0.60;;;21.10;46.40;;;;;;4954627;28;44654;-62
2023/04/26 14:05:23;;;;;;;0.70;0.70;;;21.10;46.40;;;;;;4946880;28;46239;-61
2023/04/26 14:07:49;;;;;;;1.10;0.50;;;21.10;46.40;;;;;;4932116;28;44717;-61
2023/04/26 14:10:14;;;;;;;0.60;0.60;;;21.10;46.40;;;;;;4948854;28;45181;-61
2023/04/26 14:12:41;;;;;;;0.60;0.60;;;21.10;46.40;;;;;;4936056;28;45492;-61
2023/04/26 14:15:07;;;;;;;0.98;0.60;;;21.10;46.40;;;;;;4918094;28;47188;-60
2023/04/26 14:17:32;;;;;;;0.80;0.68;;;21.10;46.30;;;;;;4927496;28;46295;-62
2023/04/26 14:19:58;;;;;;;0.93;0.70;;;21.10;46.30;;;;;;4952795;28;45470;-61
2023/04/26 14:22:25;;;;;;;0.83;0.60;;;21.10;46.30;;;;;;4930790;28;45362;-62
2023/04/26 14:24:50;;;;;;;0.90;0.75;;;21.10;46.30;;;;;;4936450;28;46705;-63
2023/04/26 14:27:16;;;;;;;0.80;0.63;;;21.10;46.30;;;;;;4948730;28;45160;-63
2023/04/26 14:29:42;;;;;;;0.57;0.55;;;21.10;46.30;;;;;;4953529;28;45410;-62
2023/04/26 14:32:07;;;;;;;0.70;0.70;;;21.10;46.40;;;;;;4945315;28;45656;-62
2023/04/26 14:34:37;;;;;;;1.50;0.80;;;21.20;46.40;;;;;;4951199;28;46216;-63
2023/04/26 14:37:03;;;;;;;0.50;0.50;;;21.10;46.30;;;;;;4916440;28;45744;-61
2023/04/26 14:39:29;;;;;;;0.80;0.68;;;21.10;46.30;;;;;;4934032;28;45514;-63
2023/04/26 14:41:55;;;;;;;0.80;0.70;;;21.10;46.30;;;;;;4928307;28;45422;-63
2023/04/26 14:44:24;;;;;;;0.60;0.60;;;21.10;46.30;;;;;;4933682;28;46056;-62
2023/04/26 14:46:50;;;;;;;0.70;0.60;;;21.10;46.30;;;;;;4907370;28;45712;-62
2023/04/26 14:49:15;;;;;;;0.87;0.70;;;21.10;46.30;;;;;;4933592;28;45554;-61
2023/04/26 14:51:41;;;;;;;0.67;0.60;;;21.10;46.30;;;;;;4927990;28;45447;-61
2023/04/26 14:54:06;;;;;;;0.60;0.60;;;21.10;46.40;;;;;;4955318;28;45235;-62
2023/04/26 14:56:33;;;;;;;1.00;0.70;;;21.10;46.40;;;;;;4927084;28;45209;-61
2023/04/26 14:59:00;;;;;;;0.68;0.60;;;21.10;46.40;;;;;;4920151;28;45514;-62
2023/04/26 15:01:26;;;;;;;1.02;0.82;;;21.10;46.30;;;;;;4908002;28;44870;-62
2023/04/26 15:03:51;;;;;;;1.13;0.52;;;21.10;46.40;;;;;;4935755;28;46517;-62
2023/04/26 15:06:17;;;;;;;0.60;0.60;;;21.10;46.30;;;;;;4931539;28;45291;-62
2023/04/26 15:08:42;;;;;;;0.77;0.60;;;21.10;46.30;;;;;;4935990;28;45131;-61
2023/04/26 15:11:08;;;;;;;0.63;0.53;;;21.10;46.30;;;;;;4945334;28;46155;-60
2023/04/26 15:13:33;;;;;;;0.80;0.60;;;21.10;46.30;;;;;;4936859;28;46072;-61
2023/04/26 15:16:06;;;;;;;1.20;0.70;;;21.10;46.30;;;;;;4930519;28;45299;-64
2023/04/26 15:18:31;;;;;;;0.60;0.60;;;21.10;46.30;;;;;;4954039;28;45616;-62
2023/04/26 15:20:57;;;;;;;0.90;0.70;;;21.10;46.30;;;;;;4932575;28;45355;-62
2023/04/26 15:23:23;;;;;;;0.93;0.60;;;21.10;46.30;;;;;;4940665;28;45775;-63
2023/04/26 15:25:49;;;;;;;0.95;0.80;;;21.10;46.30;;;;;;4930299;28;45249;-61
2023/04/26 15:28:14;;;;;;;0.68;0.60;;;21.10;46.40;;;;;;4937601;28;45287;-62
2023/04/26 15:30:40;;;;;;;0.80;0.63;;;21.10;46.50;;;;;;4928938;28;45829;-63
2023/04/26 15:33:06;;;;;;;1.30;0.60;;;21.10;46.30;;;;;;4954918;28;46190;-62
2023/04/26 15:35:32;;;;;;;0.80;0.80;;;21.10;46.40;;;;;;4929163;28;45810;-61
2023/04/26 15:37:57;;;;;;;1.00;0.75;;;21.10;46.40;;;;;;4936809;28;46387;-62
2023/04/26 15:40:23;;;;;;;0.90;0.60;;;21.10;46.40;;;;;;4913634;28;46770;-62
2023/04/26 15:42:50;;;;;;;0.60;0.60;;;21.10;46.40;;;;;;4951897;28;45302;-62
2023/04/26 15:45:19;;;;;;;0.90;0.60;;;21.10;46.40;;;;;;4947862;28;46205;-62
2023/04/26 15:47:45;;;;;;;0.77;0.60;;;21.10;46.30;;;;;;4920541;28;45273;-61